Terminal Aerodrome Forecast
Issued by NWS

Current Version | Previous Version | Text Only | Print | Product List | Glossary On
Versions: 1 2 3 4 5 6 7 8 9 10 11 12 13 14 15 16 17 18 19 20 21 22 23
000
FTUS43 KIND 202324
TAFBMG
TAF
KBMG 202324Z 2100/2124 VRB03KT P6SM FEW050 FEW200
     FM211000 VRB03KT 4SM BR SCT200
     FM211400 VRB03KT P6SM SCT150
     FM211700 19004KT P6SM FEW040
      AMD LTD TO CLD VIS AND WIND 2101/2113=

USA.gov is the U.S. government's official web portal to all federal, state and local government web resources and services.